createdAt,value
2022-11-29T00:01:04.879Z,-0.47
2022-11-29T00:03:33.106Z,-0.46
2022-11-29T00:06:06.419Z,-0.44
2022-11-29T00:08:34.478Z,-0.39
2022-11-29T00:11:08.276Z,-0.37
2022-11-29T00:13:36.905Z,-0.34
2022-11-29T00:16:05.879Z,-0.35
2022-11-29T00:18:34.111Z,-0.34
2022-11-29T00:21:06.265Z,-0.38
2022-11-29T00:23:34.515Z,-0.43
2022-11-29T00:26:05.483Z,-0.48
2022-11-29T00:28:35.991Z,-0.52
2022-11-29T00:31:15.167Z,-0.54
2022-11-29T00:33:43.249Z,-0.56
2022-11-29T00:36:11.476Z,-0.56
2022-11-29T00:38:39.853Z,-0.56
2022-11-29T00:41:08.526Z,-0.59
2022-11-29T00:43:38.318Z,-0.60
2022-11-29T00:46:07.392Z,-0.61
2022-11-29T00:48:35.705Z,-0.60
2022-11-29T00:51:04.400Z,-0.61
2022-11-29T00:53:33.180Z,-0.63
2022-11-29T00:56:01.259Z,-0.66
2022-11-29T00:58:29.373Z,-0.70
2022-11-29T01:00:58.809Z,-0.75
2022-11-29T01:03:27.124Z,-0.76
2022-11-29T01:06:01.966Z,-0.80
2022-11-29T01:08:30.075Z,-0.80
2022-11-29T01:11:07.789Z,-0.84
2022-11-29T01:13:36.572Z,-0.86
2022-11-29T01:16:07.233Z,-0.87
2022-11-29T01:18:35.570Z,-0.87
2022-11-29T01:21:06.120Z,-0.86
2022-11-29T01:23:35.087Z,-0.85
2022-11-29T01:26:05.175Z,-0.85
2022-11-29T01:28:33.161Z,-0.85
2022-11-29T01:31:01.174Z,-0.85
2022-11-29T01:33:30.591Z,-0.88
2022-11-29T01:35:58.596Z,-0.87
2022-11-29T01:38:26.661Z,-0.88
2022-11-29T01:40:59.652Z,-0.89
2022-11-29T01:43:28.238Z,-0.90
2022-11-29T01:45:56.704Z,-0.92
2022-11-29T01:48:26.988Z,-0.91
2022-11-29T01:51:01.249Z,-0.96
2022-11-29T01:53:30.056Z,-0.95
2022-11-29T01:56:05.641Z,-0.94
2022-11-29T01:58:34.469Z,-0.93
2022-11-29T02:01:03.119Z,-0.96
2022-11-29T02:03:31.127Z,-0.94
2022-11-29T02:06:02.115Z,-0.95
2022-11-29T02:08:37.595Z,-0.96
2022-11-29T02:11:28.903Z,-0.98
2022-11-29T02:14:05.514Z,-0.98
2022-11-29T02:16:44.071Z,-1.00
2022-11-29T02:19:28.364Z,-1.01
2022-11-29T02:22:03.048Z,-1.05
2022-11-29T02:24:56.621Z,-1.07
2022-11-29T02:28:05.755Z,-1.10
2022-11-29T02:31:05.113Z,-1.14
2022-11-29T02:33:58.010Z,-1.14
2022-11-29T02:36:44.254Z,-1.15
2022-11-29T02:39:52.419Z,-1.16
2022-11-29T02:43:05.354Z,-1.17
2022-11-29T02:45:57.309Z,-1.18
2022-11-29T02:48:44.794Z,-1.21
2022-11-29T02:51:20.036Z,-1.21
2022-11-29T02:53:55.046Z,-1.22
2022-11-29T02:56:31.101Z,-1.20
2022-11-29T02:59:06.393Z,-1.20
2022-11-29T03:01:41.602Z,-1.20
2022-11-29T03:04:18.937Z,-1.23
2022-11-29T03:06:56.716Z,-1.22
2022-11-29T03:09:34.696Z,-1.23
2022-11-29T03:12:12.080Z,-1.20
2022-11-29T03:14:55.679Z,-1.18
2022-11-29T03:17:33.206Z,-1.15
2022-11-29T03:20:28.004Z,-1.14
2022-11-29T03:23:20.543Z,-1.13
2022-11-29T03:25:56.071Z,-1.16
2022-11-29T03:28:29.562Z,-1.15
2022-11-29T03:31:05.409Z,-1.13
2022-11-29T03:33:46.536Z,-1.10
2022-11-29T03:36:26.942Z,-1.13
2022-11-29T03:38:59.575Z,-1.14
2022-11-29T03:41:34.280Z,-1.14
2022-11-29T03:44:08.548Z,-1.17
2022-11-29T03:46:41.737Z,-1.18
2022-11-29T03:49:17.401Z,-1.23
2022-11-29T03:52:01.884Z,-1.29
2022-11-29T03:54:38.213Z,-1.29
2022-11-29T03:57:07.545Z,-1.32
2022-11-29T03:59:55.936Z,-1.40
2022-11-29T04:03:14.534Z,-1.44
2022-11-29T04:06:09.988Z,-1.46
2022-11-29T04:08:57.328Z,-1.49
2022-11-29T04:11:55.934Z,-1.54
2022-11-29T04:14:44.199Z,-1.58
2022-11-29T04:17:42.689Z,-1.60
2022-11-29T04:20:47.877Z,-1.61
2022-11-29T04:23:44.865Z,-1.64
2022-11-29T04:26:39.033Z,-1.67
2022-11-29T04:29:21.708Z,-1.67
2022-11-29T04:32:18.340Z,-1.70
2022-11-29T04:35:19.051Z,-1.71
2022-11-29T04:38:09.290Z,-1.70
2022-11-29T04:40:55.962Z,-1.71
2022-11-29T04:43:46.537Z,-1.67
2022-11-29T04:46:37.381Z,-1.63
2022-11-29T04:49:33.929Z,-1.60
2022-11-29T04:52:24.421Z,-1.54
2022-11-29T04:55:01.390Z,-1.45
2022-11-29T04:57:36.396Z,-1.39
2022-11-29T05:00:10.379Z,-1.38
2022-11-29T05:02:49.734Z,-1.40
2022-11-29T05:05:28.879Z,-1.42
2022-11-29T05:08:23.038Z,-1.49
2022-11-29T05:11:00.990Z,-1.57
2022-11-29T05:13:40.229Z,-1.62
2022-11-29T05:16:20.395Z,-1.65
2022-11-29T05:19:21.801Z,-1.67
2022-11-29T05:22:02.454Z,-1.68
2022-11-29T05:24:47.157Z,-1.68
2022-11-29T05:27:24.411Z,-1.69
2022-11-29T05:29:59.633Z,-1.72
2022-11-29T05:32:36.011Z,-1.73
2022-11-29T05:35:33.642Z,-1.75
2022-11-29T05:38:09.577Z,-1.73
2022-11-29T05:40:47.195Z,-1.75
2022-11-29T05:43:57.642Z,-1.78
2022-11-29T05:46:32.237Z,-1.79
2022-11-29T05:49:09.573Z,-1.83
2022-11-29T05:51:45.949Z,-1.84
2022-11-29T05:54:25.975Z,-1.82
2022-11-29T05:57:04.632Z,-1.82
2022-11-29T05:59:35.526Z,-1.79
2022-11-29T06:02:13.551Z,-1.78
2022-11-29T06:04:56.120Z,-1.79
2022-11-29T06:07:30.084Z,-1.76
2022-11-29T06:10:02.242Z,-1.76
2022-11-29T06:12:35.042Z,-1.78
2022-11-29T06:15:25.579Z,-1.74
2022-11-29T06:18:11.177Z,-1.70
2022-11-29T06:21:04.463Z,-1.64
2022-11-29T06:24:05.982Z,-1.58
2022-11-29T06:26:46.213Z,-1.50
2022-11-29T06:29:37.954Z,-1.41
2022-11-29T06:32:18.209Z,-1.33
2022-11-29T06:34:55.570Z,-1.28
2022-11-29T06:37:29.051Z,-1.20
2022-11-29T06:39:57.538Z,-1.10
2022-11-29T06:42:25.695Z,-1.03
2022-11-29T06:44:54.168Z,-0.98
2022-11-29T06:47:29.235Z,-0.92
2022-11-29T06:50:03.819Z,-0.85
2022-11-29T06:52:44.758Z,-0.76
2022-11-29T06:55:20.874Z,-0.62
2022-11-29T06:58:02.480Z,-0.52
2022-11-29T07:00:41.714Z,-0.39
2022-11-29T07:03:42.167Z,-0.34
2022-11-29T07:06:22.176Z,-0.20
2022-11-29T07:08:57.569Z,-0.10
2022-11-29T07:11:25.997Z,0.03
2022-11-29T07:13:54.683Z,0.16
2022-11-29T07:16:29.033Z,0.29
2022-11-29T07:19:06.261Z,0.43
2022-11-29T07:21:47.194Z,0.54
2022-11-29T07:24:33.990Z,0.59
2022-11-29T07:27:10.015Z,0.66
2022-11-29T07:29:48.938Z,0.72
2022-11-29T07:32:26.600Z,0.77
2022-11-29T07:35:04.937Z,0.86
2022-11-29T07:37:39.558Z,1.01
2022-11-29T07:40:16.468Z,1.12
2022-11-29T07:42:58.046Z,1.24
2022-11-29T07:45:29.495Z,1.33
2022-11-29T07:47:57.522Z,1.40
2022-11-29T07:50:27.220Z,1.47
2022-11-29T07:52:56.551Z,1.58
2022-11-29T07:55:27.626Z,1.68
2022-11-29T07:57:55.795Z,1.77
2022-11-29T08:00:24.384Z,1.83
2022-11-29T08:02:52.718Z,1.89
2022-11-29T08:05:20.856Z,1.93
2022-11-29T08:07:49.426Z,2.00
2022-11-29T08:10:18.285Z,2.06
2022-11-29T08:12:50.877Z,2.11
2022-11-29T08:15:19.857Z,2.18
2022-11-29T08:17:48.307Z,2.27
2022-11-29T08:20:17.532Z,2.35
2022-11-29T08:22:45.518Z,2.37
2022-11-29T08:25:13.767Z,2.43
2022-11-29T08:27:41.756Z,2.46
2022-11-29T08:30:11.961Z,2.54
2022-11-29T08:32:39.970Z,2.62
2022-11-29T08:35:08.368Z,2.67
2022-11-29T08:37:37.012Z,2.71
2022-11-29T08:40:05.477Z,2.78
2022-11-29T08:42:33.730Z,2.82
2022-11-29T08:45:01.774Z,2.95
2022-11-29T08:47:36.983Z,3.01
2022-11-29T08:50:10.175Z,3.11
2022-11-29T08:52:59.054Z,3.11
2022-11-29T08:55:29.327Z,3.24
2022-11-29T08:58:03.024Z,3.31
2022-11-29T09:00:31.135Z,3.45
2022-11-29T09:03:20.607Z,3.59
2022-11-29T09:05:48.992Z,3.72
2022-11-29T09:08:17.372Z,3.82
2022-11-29T09:10:45.686Z,3.92
2022-11-29T09:13:13.776Z,4.00
2022-11-29T09:15:43.639Z,4.16
2022-11-29T09:18:13.159Z,4.36
2022-11-29T09:20:43.930Z,4.59
2022-11-29T09:23:12.787Z,4.78
2022-11-29T09:25:40.847Z,4.95
2022-11-29T09:28:08.819Z,5.09
2022-11-29T09:30:38.157Z,5.24
2022-11-29T09:33:06.275Z,5.37
2022-11-29T09:35:36.049Z,5.39
2022-11-29T09:38:04.259Z,5.50
2022-11-29T09:40:38.673Z,5.49
2022-11-29T09:43:23.034Z,5.52
2022-11-29T09:45:57.296Z,5.58
2022-11-29T09:48:53.471Z,5.74
2022-11-29T09:51:29.445Z,5.87
2022-11-29T09:54:14.474Z,5.89
2022-11-29T09:56:45.454Z,5.95
2022-11-29T09:59:18.541Z,6.09
2022-11-29T10:01:53.183Z,6.18
2022-11-29T10:04:26.848Z,6.21
2022-11-29T10:07:03.013Z,6.24
2022-11-29T10:09:34.984Z,6.30
2022-11-29T10:12:12.904Z,6.19
2022-11-29T10:14:47.392Z,6.25
2022-11-29T10:17:27.458Z,6.26
2022-11-29T10:20:00.742Z,6.34
2022-11-29T10:22:39.557Z,6.37
2022-11-29T10:25:10.455Z,6.49
2022-11-29T10:27:41.663Z,6.51
2022-11-29T10:30:16.173Z,6.58
2022-11-29T10:32:46.627Z,6.62
2022-11-29T10:35:16.734Z,6.61
2022-11-29T10:38:07.628Z,6.65
2022-11-29T10:40:38.852Z,6.67
2022-11-29T10:43:06.987Z,6.73
2022-11-29T10:45:39.075Z,6.70
2022-11-29T10:48:11.816Z,6.72
2022-11-29T10:50:42.815Z,6.82
2022-11-29T10:53:14.893Z,6.82
2022-11-29T10:55:46.883Z,6.83
2022-11-29T10:58:22.074Z,6.83
2022-11-29T11:00:56.431Z,6.79
2022-11-29T11:03:32.302Z,6.80
2022-11-29T11:06:03.717Z,6.91
2022-11-29T11:08:35.008Z,6.96
2022-11-29T11:11:05.067Z,7.09
2022-11-29T11:13:34.095Z,7.17
2022-11-29T11:16:12.147Z,7.23
2022-11-29T11:18:40.285Z,7.30
2022-11-29T11:21:11.935Z,7.29
2022-11-29T11:23:47.945Z,7.30
2022-11-29T11:26:16.373Z,7.37
2022-11-29T11:28:50.829Z,7.46
2022-11-29T11:31:28.368Z,7.57
2022-11-29T11:33:57.184Z,7.74
2022-11-29T11:36:27.430Z,7.85
2022-11-29T11:38:59.595Z,7.96
2022-11-29T11:41:44.622Z,8.08
2022-11-29T11:44:46.739Z,8.23
2022-11-29T11:47:19.359Z,8.33
2022-11-29T11:49:50.185Z,8.39
2022-11-29T11:52:22.940Z,8.38
2022-11-29T11:54:57.174Z,8.41
2022-11-29T11:57:27.466Z,8.44
2022-11-29T12:00:00.716Z,8.49
2022-11-29T12:02:38.838Z,8.57
2022-11-29T12:05:14.449Z,8.56
2022-11-29T12:10:40.973Z,8.50
2022-11-29T12:13:19.406Z,8.52
2022-11-29T12:15:50.858Z,8.64
2022-11-29T12:18:25.937Z,8.78
2022-11-29T12:20:57.219Z,8.95
2022-11-29T12:23:32.310Z,9.03
2022-11-29T12:26:05.763Z,9.15
2022-11-29T12:28:36.716Z,9.39
2022-11-29T12:31:17.544Z,9.84
2022-11-29T12:33:51.460Z,10.52
2022-11-29T12:36:30.177Z,11.02
2022-11-29T12:39:19.447Z,11.68
2022-11-29T12:41:54.474Z,13.13
2022-11-29T12:44:33.580Z,15.33
2022-11-29T12:50:08.573Z,18.57
2022-11-29T12:52:47.283Z,19.50
2022-11-29T12:55:24.288Z,20.55
2022-11-29T12:58:03.222Z,21.54
2022-11-29T13:00:44.283Z,22.28
2022-11-29T13:03:22.436Z,22.64
2022-11-29T13:05:58.809Z,22.96
2022-11-29T13:08:48.006Z,23.14
2022-11-29T13:11:23.091Z,23.30
2022-11-29T13:14:13.782Z,22.96
2022-11-29T13:16:53.695Z,22.22
2022-11-29T13:19:30.834Z,22.17
2022-11-29T13:22:07.532Z,22.35
2022-11-29T13:24:43.089Z,22.59
2022-11-29T13:27:17.114Z,22.90
2022-11-29T13:29:47.383Z,22.77
2022-11-29T13:32:30.906Z,21.28
2022-11-29T13:35:04.257Z,21.06
2022-11-29T13:37:36.973Z,20.98
2022-11-29T13:40:18.863Z,20.96
2022-11-29T13:42:53.468Z,20.79
2022-11-29T13:45:29.665Z,20.34
2022-11-29T13:48:00.415Z,20.03
2022-11-29T13:50:43.679Z,19.77
2022-11-29T13:53:17.714Z,19.26
2022-11-29T13:55:48.798Z,18.80
2022-11-29T13:58:38.231Z,18.52
2022-11-29T14:01:12.776Z,17.95
2022-11-29T14:03:42.412Z,17.26
2022-11-29T14:06:14.137Z,16.57
2022-11-29T14:09:22.439Z,16.00
2022-11-29T14:11:58.986Z,15.27
2022-11-29T14:14:31.470Z,14.30
2022-11-29T14:17:03.133Z,13.25
2022-11-29T14:19:34.170Z,12.28
2022-11-29T14:22:23.396Z,11.37
2022-11-29T14:25:50.476Z,10.60
2022-11-29T14:28:32.534Z,9.92
2022-11-29T14:31:02.554Z,9.45
2022-11-29T14:33:58.019Z,8.93
2022-11-29T14:36:39.568Z,8.51
2022-11-29T14:39:36.480Z,8.13
2022-11-29T14:42:14.797Z,7.80
2022-11-29T14:44:51.119Z,7.52
2022-11-29T14:47:29.787Z,7.29
2022-11-29T14:50:01.153Z,7.07
2022-11-29T14:52:34.760Z,6.88
2022-11-29T14:55:06.676Z,6.73
2022-11-29T14:57:53.833Z,6.58
2022-11-29T15:00:23.531Z,6.48
2022-11-29T15:02:54.540Z,6.38
2022-11-29T15:05:30.600Z,6.28
2022-11-29T15:08:09.468Z,6.19
2022-11-29T15:10:41.477Z,6.16
2022-11-29T15:13:13.264Z,6.14
2022-11-29T15:16:05.748Z,6.09
2022-11-29T15:19:07.138Z,6.07
2022-11-29T15:21:45.650Z,6.08
2022-11-29T15:24:15.273Z,6.11
2022-11-29T15:26:56.655Z,6.12
2022-11-29T15:29:25.387Z,6.20
2022-11-29T15:31:55.846Z,6.22
2022-11-29T15:34:31.618Z,6.22
2022-11-29T15:37:01.913Z,6.24
2022-11-29T15:39:33.979Z,6.23
2022-11-29T15:42:03.857Z,6.22
2022-11-29T15:44:33.837Z,6.22
2022-11-29T15:47:21.810Z,6.19
2022-11-29T15:49:49.973Z,6.18
2022-11-29T15:52:25.882Z,6.14
2022-11-29T15:54:58.191Z,6.08
2022-11-29T15:57:30.146Z,6.05
2022-11-29T16:00:02.279Z,6.03
2022-11-29T16:02:33.769Z,5.96
2022-11-29T16:05:09.703Z,5.90
2022-11-29T16:07:40.822Z,5.87
2022-11-29T16:10:15.832Z,5.86
2022-11-29T16:12:51.908Z,5.87
2022-11-29T16:15:28.349Z,5.90
2022-11-29T16:17:56.517Z,5.89
2022-11-29T16:20:27.033Z,5.84
2022-11-29T16:23:20.065Z,5.79
2022-11-29T16:26:00.854Z,5.79
2022-11-29T16:28:32.860Z,5.77
2022-11-29T16:31:01.098Z,5.73
2022-11-29T16:33:29.419Z,5.69
2022-11-29T16:36:12.555Z,5.65
2022-11-29T16:38:47.782Z,5.63
2022-11-29T16:41:25.128Z,5.60
2022-11-29T16:43:56.211Z,5.56
2022-11-29T16:46:30.536Z,5.53
2022-11-29T16:49:00.842Z,5.53
2022-11-29T16:51:37.720Z,5.50
2022-11-29T16:54:24.743Z,5.48
2022-11-29T16:56:54.347Z,5.48
2022-11-29T16:59:27.200Z,5.48
2022-11-29T17:01:56.341Z,5.47
2022-11-29T17:04:25.319Z,5.41
2022-11-29T17:06:54.342Z,5.39
2022-11-29T17:09:26.818Z,5.39
2022-11-29T17:11:55.447Z,5.39
2022-11-29T17:14:23.596Z,5.37
2022-11-29T17:16:52.176Z,5.38
2022-11-29T17:19:23.851Z,5.40
2022-11-29T17:21:52.841Z,5.45
2022-11-29T17:24:22.826Z,5.45
2022-11-29T17:26:52.802Z,5.45
2022-11-29T17:29:20.904Z,5.44
2022-11-29T17:31:50.464Z,5.40
2022-11-29T17:34:18.923Z,5.26
2022-11-29T17:36:47.004Z,5.15
2022-11-29T17:39:15.845Z,5.09
2022-11-29T17:41:43.884Z,5.09
2022-11-29T17:44:13.900Z,5.09
2022-11-29T17:46:41.906Z,5.11
2022-11-29T17:49:11.315Z,5.11
2022-11-29T17:51:51.701Z,5.16
2022-11-29T17:54:20.974Z,5.21
2022-11-29T17:56:49.293Z,5.22
2022-11-29T17:59:18.767Z,5.23
2022-11-29T18:01:48.146Z,5.26
2022-11-29T18:04:16.693Z,5.23
2022-11-29T18:06:49.697Z,5.15
2022-11-29T18:09:19.455Z,5.13
2022-11-29T18:11:49.697Z,5.07
2022-11-29T18:14:22.770Z,5.04
2022-11-29T18:16:51.206Z,5.04
2022-11-29T18:19:23.040Z,5.05
2022-11-29T18:21:51.973Z,5.06
2022-11-29T18:24:20.239Z,5.06
2022-11-29T18:26:48.478Z,5.06
2022-11-29T18:29:16.619Z,5.06
2022-11-29T18:31:47.169Z,5.02
2022-11-29T18:34:15.823Z,4.99
2022-11-29T18:36:45.412Z,4.97
2022-11-29T18:39:15.836Z,4.94
2022-11-29T18:41:46.138Z,4.97
2022-11-29T18:44:15.863Z,4.98
2022-11-29T18:46:46.451Z,4.96
2022-11-29T18:49:15.875Z,4.95
2022-11-29T18:51:45.767Z,4.94
2022-11-29T18:54:14.899Z,4.96
2022-11-29T18:56:43.951Z,4.96
2022-11-29T18:59:14.353Z,4.94
2022-11-29T19:01:43.120Z,4.96
2022-11-29T19:04:14.834Z,4.94
2022-11-29T19:06:43.210Z,4.97
2022-11-29T19:09:14.496Z,4.95
2022-11-29T19:11:42.592Z,4.97
2022-11-29T19:14:13.106Z,4.97
2022-11-29T19:16:43.282Z,4.95
2022-11-29T19:19:13.169Z,4.89
2022-11-29T19:21:41.873Z,4.86
2022-11-29T19:24:15.123Z,4.85
2022-11-29T19:26:45.547Z,4.84
2022-11-29T19:29:14.361Z,4.83
2022-11-29T19:31:44.072Z,4.83
2022-11-29T19:34:13.560Z,4.82
2022-11-29T19:36:44.505Z,4.76
2022-11-29T19:39:14.059Z,4.67
2022-11-29T19:41:44.016Z,4.60
2022-11-29T19:44:12.618Z,4.58
2022-11-29T19:46:42.634Z,4.56
2022-11-29T19:49:11.215Z,4.56
2022-11-29T19:51:40.635Z,4.53
2022-11-29T19:54:10.255Z,4.52
2022-11-29T19:56:39.393Z,4.49
2022-11-29T19:59:08.772Z,4.45
2022-11-29T20:01:41.439Z,4.41
2022-11-29T20:04:12.288Z,4.37
2022-11-29T20:06:42.336Z,4.32
2022-11-29T20:09:10.800Z,4.27
2022-11-29T20:11:38.993Z,4.23
2022-11-29T20:14:08.886Z,4.22
2022-11-29T20:16:39.187Z,4.19
2022-11-29T20:19:11.020Z,4.16
2022-11-29T20:21:44.080Z,4.12
2022-11-29T20:24:14.476Z,4.07
2022-11-29T20:26:45.432Z,4.01
2022-11-29T20:29:14.830Z,3.91
2022-11-29T20:31:49.560Z,3.78
2022-11-29T20:34:19.060Z,3.67
2022-11-29T20:37:16.015Z,3.55
2022-11-29T20:39:51.120Z,3.47
2022-11-29T20:42:43.994Z,3.30
2022-11-29T20:45:14.004Z,3.21
2022-11-29T20:47:50.321Z,3.11
2022-11-29T20:50:23.232Z,3.04
2022-11-29T20:53:03.802Z,2.92
2022-11-29T20:55:31.891Z,2.86
2022-11-29T20:57:59.965Z,2.76
2022-11-29T21:00:28.025Z,2.69
2022-11-29T21:02:56.052Z,2.67
2022-11-29T21:05:24.077Z,2.62
2022-11-29T21:07:53.551Z,2.62
2022-11-29T21:10:22.042Z,2.59
2022-11-29T21:12:50.767Z,2.58
2022-11-29T21:15:19.851Z,2.58
2022-11-29T21:17:48.312Z,2.57
2022-11-29T21:20:19.670Z,2.53
2022-11-29T21:22:55.254Z,2.45
2022-11-29T21:25:32.594Z,2.37
2022-11-29T21:28:02.208Z,2.30
2022-11-29T21:30:30.547Z,2.18
2022-11-29T21:32:59.136Z,2.07
2022-11-29T21:35:27.356Z,2.00
2022-11-29T21:38:00.985Z,1.97
2022-11-29T21:40:29.537Z,1.99
2022-11-29T21:42:57.624Z,2.01
2022-11-29T21:45:25.750Z,2.00
2022-11-29T21:47:53.741Z,2.00
2022-11-29T21:50:21.775Z,2.00
2022-11-29T21:52:52.465Z,1.99
2022-11-29T21:55:21.920Z,1.99
2022-11-29T21:57:49.901Z,1.94
2022-11-29T22:00:18.878Z,1.93
2022-11-29T22:02:46.920Z,1.90
2022-11-29T22:05:15.094Z,1.88
2022-11-29T22:07:44.346Z,1.85
2022-11-29T22:10:13.600Z,1.79
2022-11-29T22:12:51.843Z,1.74
2022-11-29T22:15:24.767Z,1.68
2022-11-29T22:17:53.467Z,1.60
2022-11-29T22:20:21.657Z,1.58
2022-11-29T22:22:50.070Z,1.64
2022-11-29T22:25:18.186Z,1.71
2022-11-29T22:27:50.508Z,1.76
2022-11-29T22:30:19.070Z,1.80
2022-11-29T22:32:47.094Z,1.86
2022-11-29T22:35:15.276Z,1.87
2022-11-29T22:37:43.297Z,1.90
2022-11-29T22:40:11.979Z,1.93
2022-11-29T22:42:41.425Z,1.94
2022-11-29T22:45:11.950Z,1.95
2022-11-29T22:47:39.966Z,1.95
2022-11-29T22:50:08.727Z,1.89
2022-11-29T22:52:36.785Z,1.86
2022-11-29T22:55:05.461Z,1.84
2022-11-29T22:57:33.690Z,1.79
2022-11-29T23:00:01.725Z,1.78
2022-11-29T23:02:31.156Z,1.76
2022-11-29T23:04:59.277Z,1.75
2022-11-29T23:07:27.358Z,1.73
2022-11-29T23:09:56.262Z,1.69
2022-11-29T23:12:24.291Z,1.68
2022-11-29T23:14:56.387Z,1.69
2022-11-29T23:17:24.698Z,1.67
2022-11-29T23:19:54.212Z,1.65
2022-11-29T23:22:22.332Z,1.63
2022-11-29T23:24:50.389Z,1.61
2022-11-29T23:27:18.508Z,1.59
2022-11-29T23:29:46.601Z,1.55
2022-11-29T23:32:14.557Z,1.54
2022-11-29T23:34:42.544Z,1.54
2022-11-29T23:37:11.976Z,1.54
2022-11-29T23:39:40.039Z,1.55
2022-11-29T23:42:08.095Z,1.61
2022-11-29T23:44:36.177Z,1.61
2022-11-29T23:47:04.172Z,1.62
2022-11-29T23:49:35.344Z,1.60
2022-11-29T23:52:03.401Z,1.58
2022-11-29T23:54:32.838Z,1.59
2022-11-29T23:57:00.919Z,1.62
2022-11-29T23:59:29.019Z,1.62
